sensor_id;sensor_type;location;lat;lon;timestamp;pressure;altitude;pressure_sealevel;temperature
38114;BMP180;23926;53.222;6.354;2022-11-21T00:00:55;100427.00;;;4.40
38114;BMP180;23926;53.222;6.354;2022-11-21T00:03:21;100428.00;;;4.40
38114;BMP180;23926;53.222;6.354;2022-11-21T00:05:48;100420.00;;;4.40
38114;BMP180;23926;53.222;6.354;2022-11-21T00:08:14;100414.00;;;4.40
38114;BMP180;23926;53.222;6.354;2022-11-21T00:10:40;100416.00;;;4.40
38114;BMP180;23926;53.222;6.354;2022-11-21T00:13:06;100413.00;;;4.50
38114;BMP180;23926;53.222;6.354;2022-11-21T00:15:32;100412.00;;;4.50
38114;BMP180;23926;53.222;6.354;2022-11-21T00:17:57;100407.00;;;4.50
38114;BMP180;23926;53.222;6.354;2022-11-21T00:20:22;100408.00;;;4.50
38114;BMP180;23926;53.222;6.354;2022-11-21T00:22:48;100401.00;;;4.50
38114;BMP180;23926;53.222;6.354;2022-11-21T00:25:13;100408.00;;;4.60
38114;BMP180;23926;53.222;6.354;2022-11-21T00:27:39;100408.00;;;4.50
38114;BMP180;23926;53.222;6.354;2022-11-21T00:30:05;100420.00;;;4.50
38114;BMP180;23926;53.222;6.354;2022-11-21T00:32:31;100412.00;;;4.40
38114;BMP180;23926;53.222;6.354;2022-11-21T00:34:56;100420.00;;;4.40
38114;BMP180;23926;53.222;6.354;2022-11-21T00:37:21;100411.00;;;4.30
38114;BMP180;23926;53.222;6.354;2022-11-21T00:39:47;100416.00;;;4.20
38114;BMP180;23926;53.222;6.354;2022-11-21T00:42:12;100403.00;;;4.10
38114;BMP180;23926;53.222;6.354;2022-11-21T00:44:37;100409.00;;;3.90
38114;BMP180;23926;53.222;6.354;2022-11-21T00:47:02;100406.00;;;3.80
38114;BMP180;23926;53.222;6.354;2022-11-21T00:49:28;100404.00;;;3.70
38114;BMP180;23926;53.222;6.354;2022-11-21T00:51:53;100398.00;;;3.50
38114;BMP180;23926;53.222;6.354;2022-11-21T00:54:18;100393.00;;;3.40
38114;BMP180;23926;53.222;6.354;2022-11-21T00:56:44;100400.00;;;3.20
38114;BMP180;23926;53.222;6.354;2022-11-21T00:59:09;100392.00;;;3.10
38114;BMP180;23926;53.222;6.354;2022-11-21T01:01:34;100392.00;;;3.00
38114;BMP180;23926;53.222;6.354;2022-11-21T01:03:59;100386.00;;;2.90
38114;BMP180;23926;53.222;6.354;2022-11-21T01:06:25;100388.00;;;2.80
38114;BMP180;23926;53.222;6.354;2022-11-21T01:08:50;100390.00;;;2.70
38114;BMP180;23926;53.222;6.354;2022-11-21T01:11:17;100388.00;;;2.60
38114;BMP180;23926;53.222;6.354;2022-11-21T01:13:43;100385.00;;;2.50
38114;BMP180;23926;53.222;6.354;2022-11-21T01:16:10;100385.00;;;2.40
38114;BMP180;23926;53.222;6.354;2022-11-21T01:18:35;100382.00;;;2.40
38114;BMP180;23926;53.222;6.354;2022-11-21T01:21:01;100382.00;;;2.40
38114;BMP180;23926;53.222;6.354;2022-11-21T01:23:27;100383.00;;;2.40
38114;BMP180;23926;53.222;6.354;2022-11-21T01:25:52;100386.00;;;2.40
38114;BMP180;23926;53.222;6.354;2022-11-21T01:28:18;100382.00;;;2.30
38114;BMP180;23926;53.222;6.354;2022-11-21T01:30:43;100376.00;;;2.30
38114;BMP180;23926;53.222;6.354;2022-11-21T01:33:08;100392.00;;;2.20
38114;BMP180;23926;53.222;6.354;2022-11-21T01:35:33;100393.00;;;2.10
38114;BMP180;23926;53.222;6.354;2022-11-21T01:37:59;100393.00;;;2.00
38114;BMP180;23926;53.222;6.354;2022-11-21T01:40:24;100395.00;;;1.90
38114;BMP180;23926;53.222;6.354;2022-11-21T01:42:53;100392.00;;;1.90
38114;BMP180;23926;53.222;6.354;2022-11-21T01:48:02;100391.00;;;1.80
38114;BMP180;23926;53.222;6.354;2022-11-21T01:50:27;100382.00;;;1.80
38114;BMP180;23926;53.222;6.354;2022-11-21T01:52:53;100385.00;;;1.80
38114;BMP180;23926;53.222;6.354;2022-11-21T01:55:18;100387.00;;;1.90
38114;BMP180;23926;53.222;6.354;2022-11-21T01:57:43;100389.00;;;2.00
38114;BMP180;23926;53.222;6.354;2022-11-21T02:00:17;100393.00;;;2.10
38114;BMP180;23926;53.222;6.354;2022-11-21T02:20:52;100383.00;;;2.20
38114;BMP180;23926;53.222;6.354;2022-11-21T02:23:23;100392.00;;;2.10
38114;BMP180;23926;53.222;6.354;2022-11-21T02:38:44;100377.00;;;2.10
38114;BMP180;23926;53.222;6.354;2022-11-21T02:41:17;100386.00;;;2.10
38114;BMP180;23926;53.222;6.354;2022-11-21T02:43:51;100384.00;;;1.90
38114;BMP180;23926;53.222;6.354;2022-11-21T02:46:18;100376.00;;;1.90
38114;BMP180;23926;53.222;6.354;2022-11-21T02:48:43;100372.00;;;1.80
38114;BMP180;23926;53.222;6.354;2022-11-21T02:51:09;100374.00;;;1.70
38114;BMP180;23926;53.222;6.354;2022-11-21T02:53:34;100370.00;;;1.70
38114;BMP180;23926;53.222;6.354;2022-11-21T02:55:59;100370.00;;;1.80
38114;BMP180;23926;53.222;6.354;2022-11-21T03:08:45;100358.00;;;1.80
38114;BMP180;23926;53.222;6.354;2022-11-21T03:11:10;100359.00;;;1.80
38114;BMP180;23926;53.222;6.354;2022-11-21T03:13:36;100344.00;;;1.70
38114;BMP180;23926;53.222;6.354;2022-11-21T06:26:56;100204.00;;;0.20
38114;BMP180;23926;53.222;6.354;2022-11-21T06:29:21;100190.00;;;0.10
38114;BMP180;23926;53.222;6.354;2022-11-21T06:31:46;100191.00;;;0.10
38114;BMP180;23926;53.222;6.354;2022-11-21T06:44:32;100185.00;;;0.00
38114;BMP180;23926;53.222;6.354;2022-11-21T07:08:27;100205.00;;;0.60
38114;BMP180;23926;53.222;6.354;2022-11-21T07:18:38;100214.00;;;1.00
38114;BMP180;23926;53.222;6.354;2022-11-21T10:44:27;100055.00;;;4.10
38114;BMP180;23926;53.222;6.354;2022-11-21T11:08:56;100019.00;;;4.80
38114;BMP180;23926;53.222;6.354;2022-11-21T11:11:21;100024.00;;;4.80
38114;BMP180;23926;53.222;6.354;2022-11-21T11:13:56;100028.00;;;4.90
38114;BMP180;23926;53.222;6.354;2022-11-21T11:21:27;100013.00;;;5.30
38114;BMP180;23926;53.222;6.354;2022-11-21T11:23:53;99998.00;;;5.40
38114;BMP180;23926;53.222;6.354;2022-11-21T11:29:06;99986.00;;;5.70
38114;BMP180;23926;53.222;6.354;2022-11-21T11:39:17;99975.00;;;6.10
38114;BMP180;23926;53.222;6.354;2022-11-21T11:42:47;99965.00;;;6.10
38114;BMP180;23926;53.222;6.354;2022-11-21T11:47:59;99960.00;;;6.10
38114;BMP180;23926;53.222;6.354;2022-11-21T11:50:32;99962.00;;;6.10
38114;BMP180;23926;53.222;6.354;2022-11-21T12:52:35;99848.00;;;7.10
38114;BMP180;23926;53.222;6.354;2022-11-21T12:55:26;99836.00;;;7.10
38114;BMP180;23926;53.222;6.354;2022-11-21T12:58:00;99830.00;;;7.10
38114;BMP180;23926;53.222;6.354;2022-11-21T13:00:31;99837.00;;;7.00
38114;BMP180;23926;53.222;6.354;2022-11-21T13:03:22;99836.00;;;7.00
38114;BMP180;23926;53.222;6.354;2022-11-21T13:05:47;99843.00;;;7.00
38114;BMP180;23926;53.222;6.354;2022-11-21T13:08:18;99840.00;;;7.10
38114;BMP180;23926;53.222;6.354;2022-11-21T13:13:57;99829.00;;;7.10
38114;BMP180;23926;53.222;6.354;2022-11-21T13:16:25;99834.00;;;7.10
38114;BMP180;23926;53.222;6.354;2022-11-21T13:19:15;99828.00;;;7.10
38114;BMP180;23926;53.222;6.354;2022-11-21T13:21:45;99831.00;;;7.20
38114;BMP180;23926;53.222;6.354;2022-11-21T13:25:02;99819.00;;;7.30
38114;BMP180;23926;53.222;6.354;2022-11-21T13:27:01;99821.00;;;7.20
38114;BMP180;23926;53.222;6.354;2022-11-21T13:29:27;99819.00;;;7.20
38114;BMP180;23926;53.222;6.354;2022-11-21T13:31:52;99813.00;;;7.20
38114;BMP180;23926;53.222;6.354;2022-11-21T13:34:31;99808.00;;;7.20
38114;BMP180;23926;53.222;6.354;2022-11-21T13:36:58;99802.00;;;7.20
38114;BMP180;23926;53.222;6.354;2022-11-21T13:39:25;99806.00;;;7.10
38114;BMP180;23926;53.222;6.354;2022-11-21T13:42:00;99804.00;;;7.10
38114;BMP180;23926;53.222;6.354;2022-11-21T13:44:55;99793.00;;;7.00
38114;BMP180;23926;53.222;6.354;2022-11-21T13:52:58;99780.00;;;6.90
38114;BMP180;23926;53.222;6.354;2022-11-21T14:06:20;99752.00;;;7.20
38114;BMP180;23926;53.222;6.354;2022-11-21T14:09:05;99753.00;;;7.20
38114;BMP180;23926;53.222;6.354;2022-11-21T14:17:02;99732.00;;;7.20
38114;BMP180;23926;53.222;6.354;2022-11-21T14:19:33;99724.00;;;7.20
38114;BMP180;23926;53.222;6.354;2022-11-21T14:21:59;99723.00;;;7.20
38114;BMP180;23926;53.222;6.354;2022-11-21T14:24:24;99715.00;;;7.20
38114;BMP180;23926;53.222;6.354;2022-11-21T14:26:50;99703.00;;;7.20
38114;BMP180;23926;53.222;6.354;2022-11-21T14:29:24;99700.00;;;7.20
38114;BMP180;23926;53.222;6.354;2022-11-21T14:31:50;99710.00;;;7.20
38114;BMP180;23926;53.222;6.354;2022-11-21T14:34:27;99698.00;;;7.30
38114;BMP180;23926;53.222;6.354;2022-11-21T14:36:53;99698.00;;;7.30
38114;BMP180;23926;53.222;6.354;2022-11-21T14:39:18;99693.00;;;7.30
38114;BMP180;23926;53.222;6.354;2022-11-21T14:41:48;99701.00;;;7.30
38114;BMP180;23926;53.222;6.354;2022-11-21T14:44:16;99692.00;;;7.20
38114;BMP180;23926;53.222;6.354;2022-11-21T14:46:41;99688.00;;;7.20
38114;BMP180;23926;53.222;6.354;2022-11-21T14:51:51;99686.00;;;7.20
38114;BMP180;23926;53.222;6.354;2022-11-21T14:54:21;99686.00;;;7.20
38114;BMP180;23926;53.222;6.354;2022-11-21T14:56:48;99676.00;;;7.20
38114;BMP180;23926;53.222;6.354;2022-11-21T14:59:21;99677.00;;;7.20
38114;BMP180;23926;53.222;6.354;2022-11-21T15:01:57;99674.00;;;7.10
38114;BMP180;23926;53.222;6.354;2022-11-21T15:04:25;99668.00;;;7.10
38114;BMP180;23926;53.222;6.354;2022-11-21T15:06:51;99666.00;;;7.10
38114;BMP180;23926;53.222;6.354;2022-11-21T15:09:16;99671.00;;;7.10
38114;BMP180;23926;53.222;6.354;2022-11-21T15:11:44;99670.00;;;7.10
38114;BMP180;23926;53.222;6.354;2022-11-21T15:14:15;99666.00;;;7.00
38114;BMP180;23926;53.222;6.354;2022-11-21T15:16:44;99661.00;;;7.00
38114;BMP180;23926;53.222;6.354;2022-11-21T15:19:10;99661.00;;;7.00
38114;BMP180;23926;53.222;6.354;2022-11-21T15:21:36;99653.00;;;7.00
38114;BMP180;23926;53.222;6.354;2022-11-21T15:24:14;99657.00;;;7.00
38114;BMP180;23926;53.222;6.354;2022-11-21T15:26:40;99649.00;;;7.00
38114;BMP180;23926;53.222;6.354;2022-11-21T15:29:15;99648.00;;;7.00
38114;BMP180;23926;53.222;6.354;2022-11-21T15:31:43;99642.00;;;7.00
38114;BMP180;23926;53.222;6.354;2022-11-21T15:34:08;99650.00;;;7.00
38114;BMP180;23926;53.222;6.354;2022-11-21T15:36:36;99657.00;;;7.00
38114;BMP180;23926;53.222;6.354;2022-11-21T15:39:03;99646.00;;;7.00
38114;BMP180;23926;53.222;6.354;2022-11-21T15:41:33;99647.00;;;7.00
38114;BMP180;23926;53.222;6.354;2022-11-21T15:46:27;99643.00;;;7.00
38114;BMP180;23926;53.222;6.354;2022-11-21T15:48:56;99647.00;;;7.00
38114;BMP180;23926;53.222;6.354;2022-11-21T15:51:31;99641.00;;;7.00
38114;BMP180;23926;53.222;6.354;2022-11-21T15:54:15;99635.00;;;7.00
38114;BMP180;23926;53.222;6.354;2022-11-21T15:56:41;99642.00;;;7.00
38114;BMP180;23926;53.222;6.354;2022-11-21T15:59:07;99638.00;;;7.10
38114;BMP180;23926;53.222;6.354;2022-11-21T16:01:34;99635.00;;;7.10
38114;BMP180;23926;53.222;6.354;2022-11-21T16:04:03;99628.00;;;7.10
38114;BMP180;23926;53.222;6.354;2022-11-21T16:06:29;99631.00;;;7.10
38114;BMP180;23926;53.222;6.354;2022-11-21T16:09:00;99627.00;;;7.20
38114;BMP180;23926;53.222;6.354;2022-11-21T16:11:30;99621.00;;;7.20
38114;BMP180;23926;53.222;6.354;2022-11-21T16:13:59;99621.00;;;7.20
38114;BMP180;23926;53.222;6.354;2022-11-21T16:16:27;99614.00;;;7.20
38114;BMP180;23926;53.222;6.354;2022-11-21T16:18:52;99619.00;;;7.20
38114;BMP180;23926;53.222;6.354;2022-11-21T16:21:18;99604.00;;;7.20
38114;BMP180;23926;53.222;6.354;2022-11-21T16:23:43;99604.00;;;7.20
38114;BMP180;23926;53.222;6.354;2022-11-21T16:26:11;99593.00;;;7.20
38114;BMP180;23926;53.222;6.354;2022-11-21T16:28:37;99589.00;;;7.20
38114;BMP180;23926;53.222;6.354;2022-11-21T16:31:03;99578.00;;;7.10
38114;BMP180;23926;53.222;6.354;2022-11-21T16:33:28;99577.00;;;7.10
38114;BMP180;23926;53.222;6.354;2022-11-21T16:35:54;99581.00;;;7.00
38114;BMP180;23926;53.222;6.354;2022-11-21T16:38:21;99571.00;;;7.00
38114;BMP180;23926;53.222;6.354;2022-11-21T16:40:54;99570.00;;;7.10
38114;BMP180;23926;53.222;6.354;2022-11-21T16:43:20;99564.00;;;7.10
38114;BMP180;23926;53.222;6.354;2022-11-21T16:45:45;99554.00;;;7.10
38114;BMP180;23926;53.222;6.354;2022-11-21T16:48:18;99538.00;;;7.00
38114;BMP180;23926;53.222;6.354;2022-11-21T16:50:44;99539.00;;;7.00
38114;BMP180;23926;53.222;6.354;2022-11-21T16:53:09;99537.00;;;7.00
38114;BMP180;23926;53.222;6.354;2022-11-21T16:55:35;99536.00;;;7.00
38114;BMP180;23926;53.222;6.354;2022-11-21T16:58:00;99536.00;;;6.90
38114;BMP180;23926;53.222;6.354;2022-11-21T17:00:26;99529.00;;;7.00
38114;BMP180;23926;53.222;6.354;2022-11-21T17:02:51;99528.00;;;7.00
38114;BMP180;23926;53.222;6.354;2022-11-21T17:05:20;99528.00;;;7.00
38114;BMP180;23926;53.222;6.354;2022-11-21T17:07:49;99519.00;;;6.90
38114;BMP180;23926;53.222;6.354;2022-11-21T17:10:14;99515.00;;;7.00
38114;BMP180;23926;53.222;6.354;2022-11-21T17:12:40;99515.00;;;7.00
38114;BMP180;23926;53.222;6.354;2022-11-21T17:15:07;99509.00;;;7.00
38114;BMP180;23926;53.222;6.354;2022-11-21T17:17:35;99503.00;;;6.90
38114;BMP180;23926;53.222;6.354;2022-11-21T17:20:01;99500.00;;;7.00
38114;BMP180;23926;53.222;6.354;2022-11-21T17:22:27;99481.00;;;7.00
38114;BMP180;23926;53.222;6.354;2022-11-21T17:24:52;99496.00;;;7.10
38114;BMP180;23926;53.222;6.354;2022-11-21T17:27:18;99501.00;;;7.10
38114;BMP180;23926;53.222;6.354;2022-11-21T17:29:44;99492.00;;;7.10
38114;BMP180;23926;53.222;6.354;2022-11-21T17:32:09;99490.00;;;7.10
38114;BMP180;23926;53.222;6.354;2022-11-21T17:34:34;99489.00;;;7.20
38114;BMP180;23926;53.222;6.354;2022-11-21T17:36:59;99481.00;;;7.10
38114;BMP180;23926;53.222;6.354;2022-11-21T17:39:25;99490.00;;;7.10
38114;BMP180;23926;53.222;6.354;2022-11-21T17:41:52;99469.00;;;7.10
38114;BMP180;23926;53.222;6.354;2022-11-21T17:44:17;99485.00;;;7.10
38114;BMP180;23926;53.222;6.354;2022-11-21T17:46:42;99484.00;;;7.10
38114;BMP180;23926;53.222;6.354;2022-11-21T17:49:08;99489.00;;;7.10
38114;BMP180;23926;53.222;6.354;2022-11-21T17:51:33;99494.00;;;7.00
38114;BMP180;23926;53.222;6.354;2022-11-21T17:53:59;99488.00;;;7.10
38114;BMP180;23926;53.222;6.354;2022-11-21T17:56:25;99491.00;;;7.10
38114;BMP180;23926;53.222;6.354;2022-11-21T17:58:51;99484.00;;;7.10
38114;BMP180;23926;53.222;6.354;2022-11-21T18:01:16;99482.00;;;7.00
38114;BMP180;23926;53.222;6.354;2022-11-21T18:03:47;99482.00;;;7.00
38114;BMP180;23926;53.222;6.354;2022-11-21T18:06:17;99487.00;;;7.00
38114;BMP180;23926;53.222;6.354;2022-11-21T18:08:43;99473.00;;;7.10
38114;BMP180;23926;53.222;6.354;2022-11-21T18:11:09;99471.00;;;7.00
38114;BMP180;23926;53.222;6.354;2022-11-21T18:13:35;99469.00;;;7.00
38114;BMP180;23926;53.222;6.354;2022-11-21T18:16:04;99471.00;;;7.00
38114;BMP180;23926;53.222;6.354;2022-11-21T18:18:30;99478.00;;;7.10
38114;BMP180;23926;53.222;6.354;2022-11-21T18:21:00;99480.00;;;7.00
38114;BMP180;23926;53.222;6.354;2022-11-21T18:23:26;99475.00;;;7.00
38114;BMP180;23926;53.222;6.354;2022-11-21T18:25:51;99469.00;;;6.90
38114;BMP180;23926;53.222;6.354;2022-11-21T18:28:16;99469.00;;;6.90
38114;BMP180;23926;53.222;6.354;2022-11-21T18:30:42;99466.00;;;6.90
38114;BMP180;23926;53.222;6.354;2022-11-21T18:33:07;99466.00;;;6.90
38114;BMP180;23926;53.222;6.354;2022-11-21T18:35:32;99456.00;;;6.90
38114;BMP180;23926;53.222;6.354;2022-11-21T18:37:57;99450.00;;;6.80
38114;BMP180;23926;53.222;6.354;2022-11-21T18:40:23;99449.00;;;6.90
38114;BMP180;23926;53.222;6.354;2022-11-21T18:42:48;99438.00;;;6.80
38114;BMP180;23926;53.222;6.354;2022-11-21T18:45:13;99435.00;;;6.80
38114;BMP180;23926;53.222;6.354;2022-11-21T18:47:38;99415.00;;;6.80
38114;BMP180;23926;53.222;6.354;2022-11-21T18:50:05;99422.00;;;6.80
38114;BMP180;23926;53.222;6.354;2022-11-21T18:52:30;99422.00;;;6.80
38114;BMP180;23926;53.222;6.354;2022-11-21T18:54:58;99421.00;;;6.80
38114;BMP180;23926;53.222;6.354;2022-11-21T18:57:23;99416.00;;;6.80
38114;BMP180;23926;53.222;6.354;2022-11-21T18:59:48;99414.00;;;6.80
38114;BMP180;23926;53.222;6.354;2022-11-21T19:02:13;99413.00;;;6.90
38114;BMP180;23926;53.222;6.354;2022-11-21T19:04:39;99410.00;;;6.80
38114;BMP180;23926;53.222;6.354;2022-11-21T19:07:04;99389.00;;;6.80
38114;BMP180;23926;53.222;6.354;2022-11-21T19:09:29;99401.00;;;6.80
38114;BMP180;23926;53.222;6.354;2022-11-21T19:11:54;99398.00;;;6.80
38114;BMP180;23926;53.222;6.354;2022-11-21T19:14:20;99395.00;;;6.80
38114;BMP180;23926;53.222;6.354;2022-11-21T19:16:45;99396.00;;;6.80
38114;BMP180;23926;53.222;6.354;2022-11-21T19:19:11;99401.00;;;6.80
38114;BMP180;23926;53.222;6.354;2022-11-21T19:21:36;99393.00;;;6.70
38114;BMP180;23926;53.222;6.354;2022-11-21T19:24:02;99389.00;;;6.70
38114;BMP180;23926;53.222;6.354;2022-11-21T19:26:29;99388.00;;;6.70
38114;BMP180;23926;53.222;6.354;2022-11-21T19:28:55;99387.00;;;6.60
38114;BMP180;23926;53.222;6.354;2022-11-21T19:31:21;99382.00;;;6.60
38114;BMP180;23926;53.222;6.354;2022-11-21T19:33:46;99385.00;;;6.60
38114;BMP180;23926;53.222;6.354;2022-11-21T19:36:12;99376.00;;;6.60
38114;BMP180;23926;53.222;6.354;2022-11-21T19:38:38;99378.00;;;6.50
38114;BMP180;23926;53.222;6.354;2022-11-21T19:41:04;99369.00;;;6.50
38114;BMP180;23926;53.222;6.354;2022-11-21T19:43:45;99362.00;;;6.50
38114;BMP180;23926;53.222;6.354;2022-11-21T19:46:11;99362.00;;;6.50
38114;BMP180;23926;53.222;6.354;2022-11-21T19:48:37;99358.00;;;6.50
38114;BMP180;23926;53.222;6.354;2022-11-21T19:51:03;99353.00;;;6.50
38114;BMP180;23926;53.222;6.354;2022-11-21T19:53:31;99349.00;;;6.60
38114;BMP180;23926;53.222;6.354;2022-11-21T19:55:57;99351.00;;;6.60
38114;BMP180;23926;53.222;6.354;2022-11-21T19:58:22;99332.00;;;6.60
38114;BMP180;23926;53.222;6.354;2022-11-21T20:00:48;99326.00;;;6.60
38114;BMP180;23926;53.222;6.354;2022-11-21T20:03:13;99317.00;;;6.60
38114;BMP180;23926;53.222;6.354;2022-11-21T20:05:39;99309.00;;;6.60
38114;BMP180;23926;53.222;6.354;2022-11-21T20:08:04;99293.00;;;6.60
38114;BMP180;23926;53.222;6.354;2022-11-21T20:10:31;99292.00;;;6.70
38114;BMP180;23926;53.222;6.354;2022-11-21T20:12:57;99300.00;;;6.70
38114;BMP180;23926;53.222;6.354;2022-11-21T20:15:23;99298.00;;;6.70
38114;BMP180;23926;53.222;6.354;2022-11-21T20:17:48;99296.00;;;6.70
38114;BMP180;23926;53.222;6.354;2022-11-21T20:20:14;99293.00;;;6.70
38114;BMP180;23926;53.222;6.354;2022-11-21T20:22:39;99292.00;;;6.70
38114;BMP180;23926;53.222;6.354;2022-11-21T20:25:04;99288.00;;;6.80
38114;BMP180;23926;53.222;6.354;2022-11-21T20:27:30;99292.00;;;6.70
38114;BMP180;23926;53.222;6.354;2022-11-21T20:29:55;99285.00;;;6.80
38114;BMP180;23926;53.222;6.354;2022-11-21T20:32:20;99286.00;;;6.80
38114;BMP180;23926;53.222;6.354;2022-11-21T20:34:46;99286.00;;;6.80
38114;BMP180;23926;53.222;6.354;2022-11-21T20:37:11;99278.00;;;6.80
38114;BMP180;23926;53.222;6.354;2022-11-21T20:39:36;99283.00;;;6.90
38114;BMP180;23926;53.222;6.354;2022-11-21T20:42:01;99289.00;;;6.90
38114;BMP180;23926;53.222;6.354;2022-11-21T20:44:27;99290.00;;;6.90
38114;BMP180;23926;53.222;6.354;2022-11-21T20:46:52;99293.00;;;7.00
38114;BMP180;23926;53.222;6.354;2022-11-21T20:49:17;99289.00;;;7.00
38114;BMP180;23926;53.222;6.354;2022-11-21T20:51:43;99281.00;;;7.00
38114;BMP180;23926;53.222;6.354;2022-11-21T20:54:08;99304.00;;;7.00
38114;BMP180;23926;53.222;6.354;2022-11-21T20:56:34;99294.00;;;7.00
38114;BMP180;23926;53.222;6.354;2022-11-21T20:59:00;99289.00;;;7.00
38114;BMP180;23926;53.222;6.354;2022-11-21T21:01:26;99284.00;;;7.00
38114;BMP180;23926;53.222;6.354;2022-11-21T21:03:51;99289.00;;;7.10
38114;BMP180;23926;53.222;6.354;2022-11-21T21:06:17;99285.00;;;7.10
38114;BMP180;23926;53.222;6.354;2022-11-21T21:08:42;99288.00;;;7.20
38114;BMP180;23926;53.222;6.354;2022-11-21T21:11:10;99285.00;;;7.10
38114;BMP180;23926;53.222;6.354;2022-11-21T21:13:36;99287.00;;;7.10
38114;BMP180;23926;53.222;6.354;2022-11-21T21:16:05;99280.00;;;7.20
38114;BMP180;23926;53.222;6.354;2022-11-21T21:18:34;99277.00;;;7.20
38114;BMP180;23926;53.222;6.354;2022-11-21T21:21:03;99282.00;;;7.20
38114;BMP180;23926;53.222;6.354;2022-11-21T21:23:28;99268.00;;;7.20
38114;BMP180;23926;53.222;6.354;2022-11-21T21:25:54;99259.00;;;7.20
38114;BMP180;23926;53.222;6.354;2022-11-21T21:28:19;99256.00;;;7.20
38114;BMP180;23926;53.222;6.354;2022-11-21T21:30:44;99259.00;;;7.10
38114;BMP180;23926;53.222;6.354;2022-11-21T21:33:11;99253.00;;;7.10
38114;BMP180;23926;53.222;6.354;2022-11-21T21:35:37;99242.00;;;7.00
38114;BMP180;23926;53.222;6.354;2022-11-21T21:38:02;99250.00;;;7.00
38114;BMP180;23926;53.222;6.354;2022-11-21T21:40:27;99249.00;;;7.00
38114;BMP180;23926;53.222;6.354;2022-11-21T21:42:53;99242.00;;;7.00
38114;BMP180;23926;53.222;6.354;2022-11-21T21:45:18;99244.00;;;7.00
38114;BMP180;23926;53.222;6.354;2022-11-21T21:47:43;99249.00;;;7.00
38114;BMP180;23926;53.222;6.354;2022-11-21T21:50:09;99245.00;;;7.00
38114;BMP180;23926;53.222;6.354;2022-11-21T21:52:34;99239.00;;;6.90
38114;BMP180;23926;53.222;6.354;2022-11-21T21:54:59;99245.00;;;6.90
38114;BMP180;23926;53.222;6.354;2022-11-21T21:57:24;99245.00;;;7.00
38114;BMP180;23926;53.222;6.354;2022-11-21T21:59:50;99239.00;;;7.00
38114;BMP180;23926;53.222;6.354;2022-11-21T22:02:15;99242.00;;;7.00
38114;BMP180;23926;53.222;6.354;2022-11-21T22:04:40;99229.00;;;7.00
38114;BMP180;23926;53.222;6.354;2022-11-21T22:07:05;99223.00;;;7.00
38114;BMP180;23926;53.222;6.354;2022-11-21T22:09:32;99224.00;;;7.00
38114;BMP180;23926;53.222;6.354;2022-11-21T22:11:57;99220.00;;;7.00
38114;BMP180;23926;53.222;6.354;2022-11-21T22:14:23;99221.00;;;7.00
38114;BMP180;23926;53.222;6.354;2022-11-21T22:16:48;99223.00;;;7.00
38114;BMP180;23926;53.222;6.354;2022-11-21T22:19:13;99222.00;;;7.00
38114;BMP180;23926;53.222;6.354;2022-11-21T22:21:39;99225.00;;;7.00
38114;BMP180;23926;53.222;6.354;2022-11-21T22:24:12;99223.00;;;6.90
38114;BMP180;23926;53.222;6.354;2022-11-21T22:26:37;99230.00;;;6.90
38114;BMP180;23926;53.222;6.354;2022-11-21T22:29:03;99217.00;;;6.90
38114;BMP180;23926;53.222;6.354;2022-11-21T22:31:29;99219.00;;;6.90
38114;BMP180;23926;53.222;6.354;2022-11-21T22:33:55;99220.00;;;6.90
38114;BMP180;23926;53.222;6.354;2022-11-21T22:36:20;99210.00;;;7.00
38114;BMP180;23926;53.222;6.354;2022-11-21T22:38:46;99208.00;;;7.00
38114;BMP180;23926;53.222;6.354;2022-11-21T22:41:15;99209.00;;;7.00
38114;BMP180;23926;53.222;6.354;2022-11-21T22:43:41;99197.00;;;7.00
38114;BMP180;23926;53.222;6.354;2022-11-21T22:46:08;99199.00;;;7.00
38114;BMP180;23926;53.222;6.354;2022-11-21T22:48:33;99197.00;;;6.90
38114;BMP180;23926;53.222;6.354;2022-11-21T22:51:00;99190.00;;;6.90
38114;BMP180;23926;53.222;6.354;2022-11-21T22:53:26;99194.00;;;7.00
38114;BMP180;23926;53.222;6.354;2022-11-21T22:55:57;99184.00;;;6.90
38114;BMP180;23926;53.222;6.354;2022-11-21T22:58:23;99194.00;;;6.90
38114;BMP180;23926;53.222;6.354;2022-11-21T23:00:49;99199.00;;;6.90
38114;BMP180;23926;53.222;6.354;2022-11-21T23:03:14;99193.00;;;6.90
38114;BMP180;23926;53.222;6.354;2022-11-21T23:05:39;99196.00;;;6.90
38114;BMP180;23926;53.222;6.354;2022-11-21T23:08:04;99200.00;;;6.90
38114;BMP180;23926;53.222;6.354;2022-11-21T23:10:30;99202.00;;;6.90
38114;BMP180;23926;53.222;6.354;2022-11-21T23:12:55;99195.00;;;6.90
38114;BMP180;23926;53.222;6.354;2022-11-21T23:15:20;99209.00;;;6.90
38114;BMP180;23926;53.222;6.354;2022-11-21T23:17:49;99205.00;;;6.90
38114;BMP180;23926;53.222;6.354;2022-11-21T23:20:14;99207.00;;;6.90
38114;BMP180;23926;53.222;6.354;2022-11-21T23:22:39;99201.00;;;6.90
38114;BMP180;23926;53.222;6.354;2022-11-21T23:25:04;99199.00;;;6.90
38114;BMP180;23926;53.222;6.354;2022-11-21T23:27:30;99201.00;;;6.90
38114;BMP180;23926;53.222;6.354;2022-11-21T23:29:55;99199.00;;;6.90
38114;BMP180;23926;53.222;6.354;2022-11-21T23:32:20;99180.00;;;6.80
38114;BMP180;23926;53.222;6.354;2022-11-21T23:34:46;99185.00;;;6.80
38114;BMP180;23926;53.222;6.354;2022-11-21T23:37:11;99187.00;;;6.80
38114;BMP180;23926;53.222;6.354;2022-11-21T23:39:36;99182.00;;;6.80
38114;BMP180;23926;53.222;6.354;2022-11-21T23:42:01;99175.00;;;6.80
38114;BMP180;23926;53.222;6.354;2022-11-21T23:44:27;99180.00;;;6.80
38114;BMP180;23926;53.222;6.354;2022-11-21T23:46:52;99177.00;;;6.80
38114;BMP180;23926;53.222;6.354;2022-11-21T23:49:17;99159.00;;;6.80
38114;BMP180;23926;53.222;6.354;2022-11-21T23:51:42;99160.00;;;6.80
38114;BMP180;23926;53.222;6.354;2022-11-21T23:54:08;99163.00;;;6.80
38114;BMP180;23926;53.222;6.354;2022-11-21T23:56:33;99151.00;;;6.80
38114;BMP180;23926;53.222;6.354;2022-11-21T23:58:59;99147.00;;;6.80
